Terminal Aerodrome Forecast
Issued by NWS

Home | Current Version | Previous Version | Text Only | Print | Product List | Glossary On
Versions: 1 2 3 4 5 6 7 8 9 10 11 12 13 14 15 16 17 18 19 20 21 22 23 24 25 26 27 28 29 30 31 32 33 34 35 36 37 38 39 40 41 42 43 44 45 46 47 48 49 50
000
FTUS41 KCAR 201022 AAB
TAFHUL
TAF AMD
KHUL 201022Z 2010/2106 02006KT 2SM -SN OVC020
     FM201200 05007KT 1/2SM SN OVC009
     FM201500 06011G20KT 1/4SM +SN BLSN OVC006
     FM210000 02012G23KT 1SM -PLSN OVC008
     FM210400 36012G23KT 3/4SM -SN OVC012=

USA.gov is the U.S. government's official web portal to all federal, state and local government web resources and services.